< < Back
Terminal Aerodrome Forecast


Current Version              Previous Versions:   1  2  3  4  5  6  7  8  9  

Terminal Aerodrome Forecast

639
FTUS42 KCHS 040757 AAB
TAFSAV
TAF AMD
KSAV 040757Z 0408/0506 19010KT P6SM BKN040 WS015/22040KT
     FM041000 20010KT P6SM BKN012 WS015/22040KT
     FM041300 21010G15KT P6SM BKN010
     FM041700 20016G26KT P6SM SCT015 SCT040=

Latest METAR

384
SAUS80 KWBC 042000
MTRSAV
METAR KSAV 041953Z 20015G21KT 10SM SCT049 BKN250 28/14 A3002 RMK AO2
SLP163 T02830144 $


USA.gov is the U.S. government's official web portal to all federal, state and local government web resources and services.